createdAt,value
2018-11-22T12:16:05.221Z,47.60
2018-11-22T12:18:36.998Z,51.23
2018-11-22T12:21:02.538Z,48.87
2018-11-22T12:23:30.768Z,47.70
2018-11-22T12:25:58.975Z,51.47
2018-11-22T12:28:27.245Z,53.80
2018-11-22T12:30:55.502Z,52.83
2018-11-22T12:33:41.070Z,49.80
2018-11-22T12:36:14.759Z,58.43
2018-11-22T12:38:43.677Z,53.80
2018-11-22T12:41:11.920Z,53.23
2018-11-22T12:43:40.172Z,48.50
2018-11-22T12:46:08.411Z,52.53
2018-11-22T12:48:36.705Z,45.83
2018-11-22T12:51:05.081Z,49.60
2018-11-22T12:53:33.307Z,45.00
2018-11-22T12:56:01.564Z,48.60
2018-11-22T12:58:30.065Z,46.90
2018-11-22T13:00:59.192Z,50.80
2018-11-22T13:03:27.571Z,47.70
2018-11-22T13:05:55.805Z,47.23
2018-11-22T13:08:24.085Z,45.47
2018-11-22T13:10:52.316Z,50.17
2018-11-22T13:13:20.580Z,50.37
2018-11-22T13:15:48.817Z,48.47
2018-11-22T13:18:17.125Z,53.10
2018-11-22T13:20:45.541Z,52.53
2018-11-22T13:23:13.778Z,52.17
2018-11-22T13:25:42.005Z,52.47
2018-11-22T13:28:10.285Z,50.33
2018-11-22T13:30:38.511Z,49.43
2018-11-22T13:33:06.807Z,57.00
2018-11-22T13:35:35.020Z,56.27
2018-11-22T13:38:03.322Z,46.40
2018-11-22T13:40:31.561Z,46.40
2018-11-22T13:42:59.810Z,50.07
2018-11-22T13:45:29.087Z,48.57
2018-11-22T13:47:57.843Z,50.27
2018-11-22T13:50:28.507Z,50.30
2018-11-22T13:53:00.370Z,56.37
2018-11-22T13:55:28.664Z,47.80
2018-11-22T13:58:03.505Z,50.20
2018-11-22T14:00:32.961Z,50.60
2018-11-22T14:03:02.792Z,50.23
2018-11-22T14:05:31.034Z,48.10
2018-11-22T14:07:59.260Z,49.53
2018-11-22T14:10:27.501Z,53.40
2018-11-22T14:12:55.721Z,51.67
2018-11-22T14:15:26.188Z,50.00
2018-11-22T14:17:56.009Z,56.10
2018-11-22T14:20:25.825Z,53.83
2018-11-22T14:22:54.054Z,49.80
2018-11-22T14:25:22.374Z,47.90
2018-11-22T14:27:51.040Z,52.63
2018-11-22T14:30:20.534Z,50.00
2018-11-22T14:32:49.772Z,50.17
2018-11-22T14:35:18.965Z,48.00
2018-11-22T14:37:47.206Z,60.23
2018-11-22T14:40:18.006Z,53.97
2018-11-22T14:42:46.969Z,49.40
2018-11-22T14:45:15.760Z,54.83
2018-11-22T14:47:45.154Z,56.93
2018-11-22T14:50:18.006Z,53.57
2018-11-22T14:52:48.544Z,50.00
2018-11-22T14:55:16.785Z,50.57
2018-11-22T14:57:45.030Z,54.03
2018-11-22T15:00:14.569Z,59.30
2018-11-22T15:02:44.120Z,52.30
2018-11-22T15:05:12.876Z,53.03
2018-11-22T15:07:41.918Z,49.53
2018-11-22T15:10:11.605Z,55.47
2018-11-22T15:12:40.611Z,56.43
2018-11-22T15:15:11.334Z,49.07
2018-11-22T15:17:40.035Z,47.80
2018-11-22T15:20:10.033Z,53.83
2018-11-22T15:22:38.817Z,53.50
2018-11-22T15:25:08.360Z,54.87
2018-11-22T15:27:36.577Z,50.87
2018-11-22T15:30:07.009Z,52.30
2018-11-22T15:32:35.519Z,50.43
2018-11-22T15:35:03.967Z,49.00
2018-11-22T15:37:32.196Z,47.20
2018-11-22T15:40:00.476Z,49.40
2018-11-22T15:42:28.705Z,53.60
2018-11-22T15:44:56.971Z,51.83
2018-11-22T15:47:25.222Z,47.53
2018-11-22T15:49:53.709Z,51.83
2018-11-22T15:52:21.947Z,53.97
2018-11-22T15:54:50.222Z,54.80
2018-11-22T15:57:18.476Z,48.60
2018-11-22T15:59:46.761Z,56.00
2018-11-22T16:02:15.347Z,49.27
2018-11-22T16:04:43.583Z,51.20
2018-11-22T16:07:11.831Z,48.20
2018-11-22T16:09:40.217Z,51.00
2018-11-22T16:12:08.493Z,46.40
2018-11-22T16:14:36.829Z,46.53
2018-11-22T16:17:05.432Z,49.60
2018-11-22T16:19:33.901Z,50.50
2018-11-22T16:22:02.477Z,53.13
2018-11-22T16:24:31.322Z,48.47
2018-11-22T16:26:59.589Z,44.87
2018-11-22T16:29:27.836Z,46.97
2018-11-22T16:31:56.165Z,46.83
2018-11-22T16:34:24.526Z,50.77
2018-11-22T16:36:52.763Z,50.63
2018-11-22T16:39:21.062Z,50.87
2018-11-22T16:41:54.378Z,48.73
2018-11-22T16:44:22.708Z,54.40
2018-11-22T16:46:50.939Z,47.80
2018-11-22T16:49:19.209Z,50.37
2018-11-22T16:54:25.305Z,49.70
2018-11-22T16:56:53.580Z,54.20
2018-11-22T16:59:21.986Z,53.10
2018-11-22T17:01:50.261Z,49.80
2018-11-22T17:04:18.540Z,47.47
2018-11-22T17:06:46.818Z,45.30
2018-11-22T17:09:15.341Z,50.27
2018-11-22T17:11:43.841Z,49.53
2018-11-22T17:14:12.117Z,47.47
2018-11-22T17:16:40.384Z,45.73
2018-11-22T17:19:08.688Z,46.73
2018-11-22T17:21:36.933Z,52.60
2018-11-22T17:24:06.061Z,49.97
2018-11-22T17:26:34.361Z,53.97
2018-11-22T17:29:02.620Z,52.33
2018-11-22T17:31:31.312Z,46.00
2018-11-22T17:33:59.554Z,48.77
2018-11-22T17:36:27.841Z,48.47
2018-11-22T17:38:56.092Z,44.40
2018-11-22T17:41:24.480Z,47.07
2018-11-22T17:43:53.149Z,49.90
2018-11-22T17:46:21.461Z,47.43
2018-11-22T17:48:49.690Z,44.83
2018-11-22T17:51:17.991Z,46.50
2018-11-22T17:53:46.293Z,50.97
2018-11-22T17:56:15.197Z,46.60
2018-11-22T17:58:43.430Z,45.67
2018-11-22T18:01:14.640Z,48.83
2018-11-22T18:03:39.905Z,47.77
2018-11-22T18:06:08.193Z,45.23
2018-11-22T18:08:37.368Z,49.40
2018-11-22T18:11:05.984Z,48.20
2018-11-22T18:13:34.333Z,43.70
2018-11-22T18:16:02.585Z,46.03
2018-11-22T18:18:30.845Z,45.80
2018-11-22T18:20:59.151Z,46.80
2018-11-22T18:23:27.578Z,44.03
2018-11-22T18:25:56.135Z,45.17
2018-11-22T18:28:24.519Z,42.13
2018-11-22T18:30:52.763Z,52.67
2018-11-22T18:33:21.330Z,47.47
2018-11-22T18:35:49.562Z,49.23
2018-11-22T18:38:17.817Z,46.03
2018-11-22T18:40:46.185Z,55.73
2018-11-22T18:43:14.451Z,45.33
2018-11-22T18:45:45.018Z,50.90
2018-11-22T18:48:14.618Z,45.60
2018-11-22T18:50:43.302Z,46.03
2018-11-22T18:53:11.697Z,47.67
2018-11-22T18:55:39.969Z,43.10
2018-11-22T18:58:08.341Z,48.13
2018-11-22T19:00:38.139Z,44.50
2018-11-22T19:03:13.992Z,46.43
2018-11-22T19:05:42.284Z,46.23
2018-11-22T19:08:10.513Z,47.03
2018-11-22T19:10:39.988Z,49.00
2018-11-22T19:13:09.153Z,42.23
2018-11-22T19:15:38.849Z,48.90
2018-11-22T19:18:07.928Z,44.07
2018-11-22T19:20:37.667Z,47.23
2018-11-22T19:23:06.866Z,39.83
2018-11-22T19:25:35.090Z,43.10
2018-11-22T19:28:03.953Z,46.30
2018-11-22T19:30:37.253Z,48.00
2018-11-22T19:33:03.360Z,42.47
2018-11-22T19:35:33.161Z,42.17
2018-11-22T19:38:01.434Z,36.97
2018-11-22T19:40:31.906Z,43.60
2018-11-22T19:43:01.460Z,39.77
2018-11-22T19:45:31.065Z,41.40
2018-11-22T19:47:59.369Z,37.07
2018-11-22T19:50:28.374Z,41.13
2018-11-22T19:52:57.440Z,36.43
2018-11-22T19:55:27.058Z,39.83
2018-11-22T20:11:58.462Z,42.03
2018-11-22T20:14:26.703Z,38.20
2018-11-22T20:16:55.029Z,35.73
2018-11-22T20:19:23.313Z,40.80
2018-11-22T20:21:51.949Z,41.70
2018-11-22T20:24:20.259Z,38.20
2018-11-22T20:26:48.946Z,39.43
2018-11-22T20:29:17.187Z,42.37
2018-11-22T20:31:45.573Z,38.77
2018-11-22T20:34:13.842Z,36.30
2018-11-22T20:36:42.217Z,40.13
2018-11-22T20:39:11.818Z,39.50
2018-11-22T20:41:40.547Z,36.40
2018-11-22T20:44:09.162Z,37.03
2018-11-22T20:46:37.705Z,36.40
2018-11-22T20:49:06.361Z,40.00
2018-11-22T20:51:34.757Z,38.13
2018-11-22T20:54:02.999Z,33.77
2018-11-22T20:56:31.234Z,37.17
2018-11-22T20:58:59.552Z,38.73
2018-11-22T21:01:27.832Z,35.00
2018-11-22T21:03:56.280Z,37.70
2018-11-22T21:06:24.558Z,32.87
2018-11-22T21:08:52.836Z,33.03
2018-11-22T21:11:21.073Z,29.47
2018-11-22T21:13:49.313Z,31.63
2018-11-22T21:16:17.562Z,36.00
2018-11-22T21:18:45.788Z,33.03
2018-11-22T21:21:14.081Z,37.03
2018-11-22T21:23:42.348Z,34.20
2018-11-22T21:26:14.550Z,30.17
2018-11-22T21:28:38.851Z,31.47
2018-11-22T21:31:07.124Z,32.80
2018-11-22T21:33:35.374Z,30.90
2018-11-22T21:36:03.633Z,32.50
2018-11-22T21:38:31.888Z,34.50
2018-11-22T21:41:00.137Z,35.50
2018-11-22T21:43:28.496Z,26.57
2018-11-22T21:45:56.728Z,35.60
2018-11-22T21:48:24.997Z,35.17
2018-11-22T21:50:53.277Z,28.70
2018-11-22T21:53:21.590Z,32.37
2018-11-22T21:55:49.834Z,33.35
2018-11-22T21:58:18.041Z,32.30
2018-11-22T22:00:46.823Z,31.73
2018-11-22T22:03:15.077Z,31.73
2018-11-22T22:05:43.356Z,35.57
2018-11-22T22:08:11.613Z,29.97
2018-11-22T22:10:39.831Z,30.00
2018-11-22T22:13:08.169Z,27.73
2018-11-22T22:15:37.177Z,30.60
2018-11-22T22:18:06.440Z,31.13
2018-11-22T22:20:35.625Z,30.93
2018-11-22T22:23:03.910Z,30.27
2018-11-22T22:25:32.310Z,29.37
2018-11-22T22:28:00.888Z,30.50
2018-11-22T22:30:31.417Z,30.97
2018-11-22T22:33:01.123Z,30.00
2018-11-22T22:35:29.352Z,33.50
2018-11-22T22:37:57.575Z,30.57
2018-11-22T22:40:27.157Z,32.50
2018-11-22T22:42:56.320Z,28.67
2018-11-22T22:45:25.560Z,28.43
2018-11-22T22:47:54.025Z,32.63
2018-11-22T22:50:23.517Z,28.50
2018-11-22T22:52:52.985Z,28.60
2018-11-22T22:55:21.243Z,34.40
2018-11-22T22:57:49.468Z,35.03
2018-11-22T23:00:23.965Z,36.03
2018-11-22T23:02:54.469Z,32.43
2018-11-22T23:05:24.487Z,31.80
2018-11-22T23:07:52.741Z,34.30
2018-11-22T23:10:21.405Z,32.80
2018-11-22T23:12:49.670Z,30.60
2018-11-22T23:15:18.508Z,32.37
2018-11-22T23:17:46.734Z,30.43
2018-11-22T23:20:17.242Z,29.47
2018-11-22T23:22:45.900Z,31.47
2018-11-22T23:25:14.736Z,35.77
2018-11-22T23:27:42.969Z,32.00
2018-11-22T23:30:15.578Z,30.90
2018-11-22T23:32:45.302Z,30.50
2018-11-22T23:35:13.547Z,28.50
2018-11-22T23:37:42.009Z,32.30
2018-11-22T23:40:12.205Z,29.27
2018-11-22T23:42:40.602Z,33.13
2018-11-22T23:45:10.061Z,28.30
2018-11-22T23:47:38.899Z,33.77
2018-11-22T23:50:08.989Z,31.00
2018-11-22T23:52:37.244Z,30.07
2018-11-22T23:55:05.965Z,31.70
2018-11-22T23:57:34.201Z,26.53
